createdAt,value
2023-01-03T00:00:53.525Z,16.05
2023-01-03T00:03:36.526Z,13.20
2023-01-03T00:06:04.118Z,8.95
2023-01-03T00:08:31.643Z,8.23
2023-01-03T00:10:58.710Z,7.63
2023-01-03T00:13:28.880Z,6.22
2023-01-03T00:15:56.303Z,10.55
2023-01-03T00:18:23.669Z,11.32
2023-01-03T00:20:51.046Z,11.25
2023-01-03T00:23:18.488Z,7.13
2023-01-03T00:25:47.936Z,11.63
2023-01-03T00:28:15.780Z,8.60
2023-01-03T00:30:42.967Z,7.32
2023-01-03T00:33:10.523Z,8.75
2023-01-03T00:35:37.867Z,6.32
2023-01-03T00:38:05.249Z,6.43
2023-01-03T00:40:32.353Z,7.60
2023-01-03T00:43:02.188Z,5.13
2023-01-03T00:45:35.046Z,6.30
2023-01-03T00:50:30.159Z,5.30
2023-01-03T00:52:57.512Z,6.22
2023-01-03T00:55:24.778Z,7.57
2023-01-03T00:57:54.632Z,7.03
2023-01-03T01:00:24.141Z,7.00
2023-01-03T01:02:56.351Z,5.80
2023-01-03T01:05:23.797Z,6.10
2023-01-03T01:07:51.182Z,6.40
2023-01-03T01:10:18.423Z,4.65
2023-01-03T01:12:46.794Z,3.75
2023-01-03T01:15:16.426Z,6.65
2023-01-03T01:17:43.951Z,5.10
2023-01-03T01:20:11.019Z,5.10
2023-01-03T01:22:40.860Z,3.88
2023-01-03T01:25:10.461Z,4.20
2023-01-03T01:27:38.000Z,2.95
2023-01-03T01:30:07.725Z,3.50
2023-01-03T01:32:35.463Z,1.50
2023-01-03T01:35:03.004Z,1.65
2023-01-03T01:37:30.366Z,1.77
2023-01-03T01:39:57.555Z,2.22
2023-01-03T01:42:30.397Z,2.88
2023-01-03T01:45:00.972Z,2.58
2023-01-03T01:48:01.912Z,2.20
2023-01-03T01:50:40.040Z,2.38
2023-01-03T01:53:18.159Z,2.80
2023-01-03T01:56:07.936Z,1.42
2023-01-03T01:58:42.332Z,2.15
2023-01-03T02:01:17.696Z,2.17
2023-01-03T02:03:56.474Z,1.42
2023-01-03T02:06:29.607Z,3.20
2023-01-03T02:09:00.084Z,3.97
2023-01-03T02:11:42.457Z,4.13
2023-01-03T02:14:40.627Z,3.65
2023-01-03T02:17:23.139Z,6.82
2023-01-03T02:19:56.734Z,4.28
2023-01-03T02:22:26.687Z,2.45
2023-01-03T02:25:15.807Z,2.72
2023-01-03T02:28:01.791Z,4.18
2023-01-03T02:30:41.244Z,2.33
2023-01-03T02:33:24.314Z,3.90
2023-01-03T02:36:10.229Z,3.88
2023-01-03T02:38:47.958Z,3.38
2023-01-03T02:41:33.802Z,3.53
2023-01-03T02:44:22.639Z,2.63
2023-01-03T02:46:52.344Z,2.47
2023-01-03T02:49:30.291Z,4.05
2023-01-03T02:52:05.298Z,2.03
2023-01-03T02:54:58.448Z,1.92
2023-01-03T02:57:34.175Z,1.92
2023-01-03T03:00:14.860Z,2.35
2023-01-03T03:02:47.511Z,2.65
2023-01-03T03:05:25.590Z,1.42
2023-01-03T03:07:54.589Z,2.58
2023-01-03T03:10:22.569Z,1.70
2023-01-03T03:12:53.747Z,2.70
2023-01-03T03:15:24.033Z,1.70
2023-01-03T03:18:02.354Z,1.77
2023-01-03T03:20:29.475Z,1.58
2023-01-03T03:23:05.879Z,1.15
2023-01-03T03:25:44.840Z,1.60
2023-01-03T03:28:21.864Z,1.50
2023-01-03T03:30:54.564Z,2.65
2023-01-03T03:33:24.701Z,1.75
2023-01-03T03:36:02.694Z,2.17
2023-01-03T03:38:44.456Z,2.10
2023-01-03T03:41:33.315Z,2.03
2023-01-03T03:44:38.314Z,1.42
2023-01-03T03:47:19.539Z,1.80
2023-01-03T03:49:51.381Z,2.10
2023-01-03T03:52:25.394Z,3.28
2023-01-03T03:55:10.918Z,2.20
2023-01-03T03:57:52.574Z,2.10
2023-01-03T04:00:28.229Z,2.97
2023-01-03T04:02:57.100Z,2.35
2023-01-03T04:05:27.756Z,2.97
2023-01-03T04:07:54.837Z,2.05
2023-01-03T04:10:23.335Z,3.30
2023-01-03T04:12:53.788Z,1.88
2023-01-03T04:15:21.192Z,2.22
2023-01-03T04:17:51.098Z,1.75
2023-01-03T04:20:18.544Z,2.65
2023-01-03T04:22:45.632Z,3.85
2023-01-03T04:25:15.547Z,5.38
2023-01-03T04:27:42.802Z,3.25
2023-01-03T04:30:10.804Z,3.97
2023-01-03T04:32:40.327Z,3.42
2023-01-03T04:35:08.128Z,2.83
2023-01-03T04:37:35.242Z,4.72
2023-01-03T04:40:02.997Z,3.22
2023-01-03T04:42:30.109Z,5.40
2023-01-03T04:44:59.950Z,3.28
2023-01-03T04:47:27.233Z,3.97
2023-01-03T04:49:57.110Z,3.53
2023-01-03T04:52:24.206Z,2.65
2023-01-03T04:54:51.819Z,5.50
2023-01-03T04:57:18.946Z,4.97
2023-01-03T04:59:48.539Z,3.78
2023-01-03T05:02:18.313Z,6.00
2023-01-03T05:04:48.434Z,5.78
2023-01-03T05:07:15.612Z,4.75
2023-01-03T05:09:43.769Z,3.95
2023-01-03T05:12:10.865Z,4.82
2023-01-03T05:14:38.390Z,4.68
2023-01-03T05:17:05.630Z,4.90
2023-01-03T05:19:36.047Z,4.53
2023-01-03T05:22:08.450Z,4.32
2023-01-03T05:24:35.774Z,6.45
2023-01-03T05:27:05.539Z,5.28
2023-01-03T05:29:36.890Z,4.18
2023-01-03T05:32:07.081Z,4.85
2023-01-03T05:34:37.327Z,18.17
2023-01-03T05:37:06.566Z,6.72
2023-01-03T05:39:33.931Z,7.03
2023-01-03T05:42:01.307Z,7.72
2023-01-03T05:44:30.560Z,6.78
2023-01-03T05:47:02.351Z,5.65
2023-01-03T05:49:29.808Z,6.55
2023-01-03T05:52:01.593Z,6.15
2023-01-03T05:54:28.938Z,7.50
2023-01-03T05:56:56.320Z,7.53
2023-01-03T05:59:25.983Z,6.03
2023-01-03T06:01:55.727Z,5.22
2023-01-03T06:04:25.589Z,5.60
2023-01-03T06:06:52.801Z,5.40
2023-01-03T06:09:20.427Z,6.22
2023-01-03T06:11:49.709Z,5.15
2023-01-03T06:14:17.117Z,6.45
2023-01-03T06:16:44.370Z,6.07
2023-01-03T06:19:11.967Z,6.57
2023-01-03T06:21:39.281Z,8.93
2023-01-03T06:24:06.847Z,6.55
2023-01-03T06:26:34.213Z,5.43
2023-01-03T06:29:01.875Z,7.45
2023-01-03T06:31:31.588Z,6.13
2023-01-03T06:34:01.353Z,5.28
2023-01-03T06:36:28.493Z,6.18
2023-01-03T06:38:55.879Z,6.13
2023-01-03T06:41:23.062Z,5.43
2023-01-03T06:43:53.350Z,5.93
2023-01-03T06:46:20.518Z,4.35
2023-01-03T06:48:48.004Z,6.15
2023-01-03T06:51:18.321Z,7.50
2023-01-03T06:53:45.735Z,6.45
2023-01-03T06:56:13.026Z,7.43
2023-01-03T06:58:40.558Z,14.57
2023-01-03T07:01:07.856Z,5.97
2023-01-03T07:03:35.441Z,6.13
2023-01-03T07:06:02.540Z,6.10
2023-01-03T07:08:32.109Z,5.95
2023-01-03T07:10:59.426Z,9.55
2023-01-03T07:13:26.817Z,5.25
2023-01-03T07:15:53.948Z,6.82
2023-01-03T07:18:21.680Z,4.38
2023-01-03T07:20:50.934Z,3.75
2023-01-03T07:23:18.416Z,4.75
2023-01-03T07:25:45.544Z,2.78
2023-01-03T07:28:15.106Z,4.10
2023-01-03T07:30:46.206Z,3.08
2023-01-03T07:33:17.541Z,2.90
2023-01-03T07:35:47.272Z,6.72
2023-01-03T07:38:17.274Z,3.95
2023-01-03T07:40:44.438Z,4.38
2023-01-03T07:43:12.376Z,4.97
2023-01-03T07:45:41.056Z,4.22
2023-01-03T07:48:11.045Z,3.58
2023-01-03T07:50:38.548Z,5.25
2023-01-03T07:53:09.769Z,5.95
2023-01-03T07:55:37.884Z,5.90
2023-01-03T07:58:05.342Z,4.65
2023-01-03T08:00:32.567Z,4.88
2023-01-03T08:03:07.747Z,3.53
2023-01-03T08:05:37.989Z,3.30
2023-01-03T08:08:06.486Z,5.80
2023-01-03T08:10:33.638Z,5.50
2023-01-03T08:13:03.659Z,5.32
2023-01-03T08:15:30.729Z,4.18
2023-01-03T08:17:58.082Z,3.67
2023-01-03T08:20:25.833Z,4.82
2023-01-03T08:22:53.356Z,8.15
2023-01-03T08:25:20.747Z,4.43
2023-01-03T08:27:50.346Z,7.78
2023-01-03T08:30:20.153Z,6.32
2023-01-03T08:32:47.696Z,5.15
2023-01-03T08:35:17.422Z,6.30
2023-01-03T08:37:46.535Z,5.90
2023-01-03T08:40:17.636Z,3.72
2023-01-03T08:42:46.240Z,4.57
2023-01-03T08:45:17.464Z,6.93
2023-01-03T08:47:46.319Z,8.20
2023-01-03T08:50:15.812Z,3.88
2023-01-03T08:52:43.256Z,7.68
2023-01-03T08:55:10.596Z,4.93
2023-01-03T08:57:40.320Z,7.38
2023-01-03T09:00:08.194Z,4.05
2023-01-03T09:02:40.217Z,4.38
2023-01-03T09:05:08.655Z,3.83
2023-01-03T09:07:36.068Z,4.28
2023-01-03T09:10:03.397Z,4.85
2023-01-03T09:12:30.826Z,5.70
2023-01-03T09:14:57.952Z,5.10
2023-01-03T09:17:28.473Z,5.05
2023-01-03T09:19:58.121Z,5.53
2023-01-03T09:22:25.721Z,5.60
2023-01-03T09:24:52.875Z,6.22
2023-01-03T09:27:22.703Z,4.43
2023-01-03T09:29:52.245Z,4.28
2023-01-03T09:32:19.660Z,3.45
2023-01-03T09:34:49.094Z,4.50
2023-01-03T09:37:16.611Z,7.88
2023-01-03T09:39:45.916Z,6.53
2023-01-03T09:42:24.148Z,6.47
2023-01-03T09:44:54.323Z,5.78
2023-01-03T09:47:25.228Z,7.45
2023-01-03T09:50:27.368Z,7.00
2023-01-03T09:52:45.412Z,4.35
2023-01-03T09:55:39.626Z,5.45
2023-01-03T09:58:17.236Z,3.08
2023-01-03T10:00:50.695Z,6.72
2023-01-03T10:03:27.546Z,5.88
2023-01-03T10:06:17.558Z,5.82
2023-01-03T10:09:03.403Z,3.78
2023-01-03T10:11:36.435Z,6.53
2023-01-03T10:14:34.416Z,6.05
2023-01-03T10:17:33.655Z,3.95
2023-01-03T10:20:12.729Z,7.25
2023-01-03T10:22:40.661Z,4.30
2023-01-03T10:25:13.091Z,6.15
2023-01-03T10:27:51.714Z,5.65
2023-01-03T10:30:27.469Z,6.85
2023-01-03T10:33:22.483Z,5.43
2023-01-03T10:35:52.493Z,9.75
2023-01-03T10:38:19.929Z,7.10
2023-01-03T10:41:01.971Z,4.60
2023-01-03T10:43:33.444Z,4.03
2023-01-03T10:46:06.427Z,6.20
2023-01-03T10:49:25.190Z,12.05
2023-01-03T10:51:42.895Z,7.82
2023-01-03T10:54:28.539Z,5.00
2023-01-03T10:57:01.902Z,6.43
2023-01-03T10:59:33.384Z,6.45
2023-01-03T11:02:09.685Z,8.48
2023-01-03T11:04:36.805Z,8.07
2023-01-03T11:07:10.500Z,6.80
2023-01-03T11:09:52.062Z,6.30
2023-01-03T11:12:30.057Z,6.75
2023-01-03T11:15:00.349Z,8.13
2023-01-03T11:17:31.276Z,10.10
2023-01-03T11:19:58.483Z,6.05
2023-01-03T11:22:46.313Z,5.40
2023-01-03T11:25:27.287Z,6.57
2023-01-03T11:28:28.655Z,9.45
2023-01-03T11:30:58.942Z,7.95
2023-01-03T11:33:29.856Z,18.77
2023-01-03T11:36:05.695Z,7.25
2023-01-03T11:38:41.829Z,7.28
2023-01-03T11:41:11.772Z,6.07
2023-01-03T11:44:13.508Z,5.00
2023-01-03T11:46:55.819Z,5.05
2023-01-03T11:49:26.485Z,18.17
2023-01-03T11:52:28.018Z,13.43
2023-01-03T11:55:24.985Z,9.75
2023-01-03T11:58:01.034Z,5.88
2023-01-03T12:00:41.352Z,6.88
2023-01-03T12:03:16.891Z,7.47
2023-01-03T12:06:06.296Z,7.30
2023-01-03T12:08:33.364Z,6.45
2023-01-03T12:11:21.160Z,8.75
2023-01-03T12:13:54.280Z,6.90
2023-01-03T12:16:51.235Z,10.63
2023-01-03T12:19:39.867Z,6.30
2023-01-03T12:22:21.212Z,5.88
2023-01-03T12:25:05.236Z,4.75
2023-01-03T12:27:37.386Z,7.78
2023-01-03T12:30:24.709Z,5.30
2023-01-03T12:33:44.663Z,6.10
2023-01-03T12:36:30.885Z,6.25
2023-01-03T12:39:33.543Z,8.18
2023-01-03T12:42:39.740Z,8.13
2023-01-03T12:45:28.385Z,5.75
2023-01-03T12:48:23.992Z,7.88
2023-01-03T12:50:55.051Z,5.00
2023-01-03T12:53:43.404Z,10.93
2023-01-03T12:56:35.696Z,6.80
2023-01-03T12:59:30.206Z,6.90
2023-01-03T13:02:01.226Z,7.28
2023-01-03T13:04:28.339Z,9.50
2023-01-03T13:07:13.669Z,7.22
2023-01-03T13:09:49.057Z,8.55
2023-01-03T13:12:22.721Z,6.97
2023-01-03T13:14:57.505Z,6.00
2023-01-03T13:17:30.651Z,6.28
2023-01-03T13:20:16.580Z,5.05
2023-01-03T13:22:55.158Z,5.30
2023-01-03T13:25:38.740Z,9.10
2023-01-03T13:30:37.153Z,5.72
2023-01-03T13:33:04.449Z,6.45
2023-01-03T13:35:45.562Z,6.38
2023-01-03T13:38:33.021Z,6.40
2023-01-03T13:41:19.495Z,6.93
2023-01-03T13:43:51.599Z,11.18
2023-01-03T13:46:32.522Z,6.03
2023-01-03T13:49:07.878Z,5.53
2023-01-03T13:51:45.648Z,7.47
2023-01-03T13:54:13.039Z,6.00
2023-01-03T13:56:43.311Z,15.35
2023-01-03T13:59:19.693Z,7.75
2023-01-03T14:02:24.223Z,12.13
2023-01-03T14:05:11.297Z,9.68
2023-01-03T14:08:07.340Z,7.10
2023-01-03T14:10:58.083Z,5.88
2023-01-03T14:13:46.990Z,6.30
2023-01-03T14:16:28.349Z,5.15
2023-01-03T14:19:17.296Z,5.90
2023-01-03T14:21:55.803Z,7.75
2023-01-03T14:24:29.135Z,7.88
2023-01-03T14:31:58.486Z,6.35
2023-01-03T14:34:33.470Z,8.77
2023-01-03T14:37:05.338Z,7.13
2023-01-03T14:42:03.941Z,10.32
2023-01-03T14:44:34.862Z,9.98
2023-01-03T14:47:14.411Z,11.40
2023-01-03T14:49:47.757Z,9.88
2023-01-03T14:52:31.182Z,9.23
2023-01-03T14:55:06.344Z,16.35
2023-01-03T14:57:38.424Z,13.00
2023-01-03T15:00:08.262Z,17.65
2023-01-03T15:02:41.108Z,8.60
2023-01-03T15:05:33.189Z,7.37
2023-01-03T15:08:15.744Z,6.40
2023-01-03T15:10:54.338Z,3.85
2023-01-03T15:13:34.484Z,6.30
2023-01-03T15:16:04.666Z,8.90
2023-01-03T15:18:35.951Z,11.38
2023-01-03T15:21:06.054Z,9.48
2023-01-03T15:23:40.163Z,15.57
2023-01-03T15:28:51.100Z,19.40
2023-01-03T15:31:28.523Z,18.80
2023-01-03T15:34:03.494Z,15.32
2023-01-03T15:36:32.347Z,11.52
2023-01-03T15:39:02.393Z,9.23
2023-01-03T15:41:31.992Z,7.72
2023-01-03T15:44:01.946Z,16.23
2023-01-03T15:46:29.422Z,19.70
2023-01-03T15:48:57.542Z,17.98
2023-01-03T15:51:24.607Z,8.10
2023-01-03T15:53:52.220Z,4.43
2023-01-03T15:56:21.008Z,6.78
2023-01-03T15:58:54.772Z,10.15
2023-01-03T16:01:23.504Z,7.18
2023-01-03T16:03:52.374Z,5.80
2023-01-03T16:06:19.532Z,10.90
2023-01-03T16:08:47.134Z,3.95
2023-01-03T16:11:20.659Z,6.43
2023-01-03T16:13:56.712Z,6.57
2023-01-03T16:16:36.188Z,8.82
2023-01-03T16:19:05.725Z,7.32
2023-01-03T16:21:33.495Z,4.13
2023-01-03T16:24:00.991Z,9.75
2023-01-03T16:26:28.407Z,7.63
2023-01-03T16:28:57.969Z,6.88
2023-01-03T16:31:33.693Z,9.43
2023-01-03T16:34:04.021Z,20.17
2023-01-03T16:36:38.993Z,17.75
2023-01-03T16:39:18.525Z,12.30
2023-01-03T16:41:46.642Z,11.73
2023-01-03T16:44:13.955Z,11.90
2023-01-03T16:46:41.054Z,10.48
2023-01-03T16:49:10.955Z,10.32
2023-01-03T16:51:47.237Z,11.52
2023-01-03T16:54:19.747Z,8.25
2023-01-03T16:56:46.926Z,10.73
2023-01-03T16:59:23.550Z,11.05
2023-01-03T17:01:50.746Z,12.18
2023-01-03T17:04:22.783Z,13.23
2023-01-03T17:06:49.887Z,12.10
2023-01-03T17:09:26.119Z,15.77
2023-01-03T17:11:53.508Z,18.98
2023-01-03T17:14:22.677Z,15.30
2023-01-03T17:16:50.397Z,17.40
2023-01-03T17:22:17.008Z,12.93
2023-01-03T17:24:45.219Z,13.82
2023-01-03T17:27:18.266Z,14.30
2023-01-03T17:29:50.480Z,12.73
2023-01-03T17:32:19.881Z,11.13
2023-01-03T17:34:47.839Z,14.40
2023-01-03T17:37:18.719Z,14.65
2023-01-03T17:39:54.215Z,16.95
2023-01-03T17:42:21.954Z,11.80
2023-01-03T17:44:55.750Z,20.08
2023-01-03T17:47:23.473Z,27.38
2023-01-03T17:49:50.821Z,29.27
2023-01-03T17:52:28.999Z,28.40
2023-01-03T17:54:59.499Z,29.63
2023-01-03T17:57:26.552Z,29.90
2023-01-03T17:59:54.072Z,25.15
2023-01-03T18:02:25.868Z,27.85
2023-01-03T18:07:41.883Z,26.17
2023-01-03T18:10:47.236Z,25.67
2023-01-03T18:13:37.025Z,24.40
2023-01-03T18:16:04.763Z,28.80
2023-01-03T18:18:32.809Z,23.92
2023-01-03T18:21:02.978Z,26.60
2023-01-03T18:23:37.470Z,21.73
2023-01-03T18:26:08.356Z,25.67
2023-01-03T18:28:35.922Z,23.60
2023-01-03T18:31:03.627Z,21.80
2023-01-03T18:33:30.915Z,23.40
2023-01-03T18:36:00.997Z,26.15
2023-01-03T18:38:35.496Z,26.02
2023-01-03T18:41:05.827Z,26.85
2023-01-03T18:43:33.924Z,22.95
2023-01-03T18:46:01.537Z,27.13
2023-01-03T18:48:31.396Z,24.13
2023-01-03T18:50:59.836Z,25.42
2023-01-03T18:53:30.691Z,29.35
2023-01-03T18:55:58.506Z,25.00
2023-01-03T18:58:34.235Z,24.75
2023-01-03T19:01:01.742Z,25.13
2023-01-03T19:03:31.382Z,22.90
2023-01-03T19:06:00.629Z,25.90
2023-01-03T19:08:33.454Z,24.38
2023-01-03T19:11:18.434Z,30.05
2023-01-03T19:13:50.965Z,29.48
2023-01-03T19:16:28.407Z,29.63
2023-01-03T19:18:58.706Z,32.20
2023-01-03T19:21:31.519Z,32.30
2023-01-03T19:23:58.654Z,27.42
2023-01-03T19:26:34.340Z,29.17
2023-01-03T19:29:04.554Z,26.98
2023-01-03T19:31:44.164Z,24.23
2023-01-03T19:34:21.572Z,26.98
2023-01-03T19:36:51.646Z,26.13
2023-01-03T19:39:24.683Z,46.05
2023-01-03T19:41:57.271Z,25.08
2023-01-03T19:44:25.400Z,25.73
2023-01-03T19:46:52.858Z,27.95
2023-01-03T19:49:22.893Z,27.95
2023-01-03T19:51:52.868Z,25.65
2023-01-03T19:54:23.031Z,27.25
2023-01-03T19:56:57.074Z,27.25
2023-01-03T19:59:36.037Z,27.00
2023-01-03T20:02:25.267Z,25.20
2023-01-03T20:04:53.298Z,22.17
2023-01-03T20:07:20.789Z,26.00
2023-01-03T20:09:47.845Z,20.30
2023-01-03T20:12:17.425Z,22.08
2023-01-03T20:14:50.713Z,19.02
2023-01-03T20:17:23.506Z,20.50
2023-01-03T20:19:53.560Z,23.75
2023-01-03T20:23:02.685Z,27.05
2023-01-03T20:25:30.384Z,25.30
2023-01-03T20:27:59.020Z,28.90
2023-01-03T20:30:28.216Z,27.60
2023-01-03T20:32:56.169Z,24.42
2023-01-03T20:38:13.498Z,28.23
2023-01-03T20:40:40.626Z,25.08
2023-01-03T20:43:13.953Z,26.15
2023-01-03T20:45:41.455Z,39.05
2023-01-03T20:48:25.169Z,60.45
2023-01-03T20:50:56.058Z,29.25
2023-01-03T20:53:27.443Z,32.10
2023-01-03T20:55:54.704Z,28.10
2023-01-03T20:58:25.440Z,64.90
2023-01-03T21:00:59.894Z,48.00
2023-01-03T21:03:32.828Z,46.17
2023-01-03T21:05:59.963Z,49.95
2023-01-03T21:08:27.432Z,54.72
2023-01-03T21:10:54.647Z,55.22
2023-01-03T21:13:22.458Z,49.08
2023-01-03T21:15:52.025Z,47.42
2023-01-03T21:18:19.597Z,47.45
2023-01-03T21:20:49.093Z,52.22
2023-01-03T21:23:21.838Z,49.05
2023-01-03T21:25:49.765Z,44.67
2023-01-03T21:28:17.203Z,49.38
2023-01-03T21:30:44.405Z,49.40
2023-01-03T21:33:18.881Z,55.97
2023-01-03T21:35:46.112Z,59.65
2023-01-03T21:38:13.709Z,53.80
2023-01-03T21:40:40.785Z,54.83
2023-01-03T21:43:10.010Z,54.45
2023-01-03T21:45:43.915Z,43.58
2023-01-03T21:48:15.695Z,46.83
2023-01-03T21:50:48.335Z,41.70
2023-01-03T21:53:17.119Z,44.33
2023-01-03T21:55:44.680Z,37.33
2023-01-03T21:58:16.577Z,32.42
2023-01-03T22:00:46.195Z,31.77
2023-01-03T22:03:17.507Z,29.88
2023-01-03T22:05:44.653Z,21.70
2023-01-03T22:08:14.433Z,29.92
2023-01-03T22:10:41.520Z,30.13
2023-01-03T22:13:10.093Z,25.90
2023-01-03T22:15:38.702Z,26.55
2023-01-03T22:18:06.352Z,23.00
2023-01-03T22:20:38.256Z,28.13
2023-01-03T22:23:06.638Z,32.63
2023-01-03T22:25:36.422Z,28.77
2023-01-03T22:28:04.089Z,24.95
2023-01-03T22:30:31.204Z,35.60
2023-01-03T22:32:58.726Z,45.65
2023-01-03T22:35:25.853Z,46.03
2023-01-03T22:37:55.935Z,42.67
2023-01-03T22:40:23.200Z,53.35
2023-01-03T22:42:53.013Z,55.85
2023-01-03T22:45:20.058Z,68.03
2023-01-03T22:47:47.503Z,72.10
2023-01-03T22:50:14.571Z,69.18
2023-01-03T22:52:44.163Z,71.30
2023-01-03T22:55:14.014Z,71.85
2023-01-03T22:57:41.321Z,75.05
2023-01-03T23:00:08.967Z,78.10
2023-01-03T23:02:41.802Z,76.70
2023-01-03T23:05:09.527Z,77.50
2023-01-03T23:07:39.435Z,90.90
2023-01-03T23:10:07.176Z,88.43
2023-01-03T23:12:34.524Z,71.03
2023-01-03T23:15:02.225Z,53.90
2023-01-03T23:17:29.602Z,37.38
2023-01-03T23:19:59.239Z,73.35
2023-01-03T23:22:29.169Z,71.63
2023-01-03T23:24:56.244Z,58.10
2023-01-03T23:27:24.352Z,44.22
2023-01-03T23:29:51.404Z,40.95
2023-01-03T23:32:18.755Z,44.22
2023-01-03T23:34:45.844Z,51.72
2023-01-03T23:37:15.920Z,52.28
2023-01-03T23:39:42.977Z,45.53
2023-01-03T23:42:10.707Z,50.05
2023-01-03T23:44:40.010Z,49.35
2023-01-03T23:47:12.063Z,41.10
2023-01-03T23:49:42.530Z,52.05
2023-01-03T23:52:12.167Z,45.10
2023-01-03T23:54:39.311Z,39.33
2023-01-03T23:57:09.810Z,38.08
2023-01-03T23:59:36.844Z,50.05
